Accueil
METAR-TAF:

METAR-TAF

Aéroports :

Aupaluk, Québec, Canada

latitude: 59-17-48N, longitude: 069-35-59W, altitude: 35 m

Observation

Le bulletin a été fait il y a 1 heure et 6 minutes, à 12:00 UTC
Vent 9 kt de nord
Température -2°C
Humidité 93%
Pression 1017 hPa
Visibilité: 19.3 km
Ciel couvert à une hauteur de 900 ft
neige faible

METAR: CYLA 011200Z 35009KT 12SM -SN OVC009 M02/M03 A3004 RMK SC8 SLP176

Heure: 09:06 (13:06 UTC)


TAF: absent

Observations et prévisions météorologiques de plus de 4000 aéroports (messages METAR et TAF).

Les stations disponibles sont représentées par des disques jaunes et rouges sur la carte.

Passer la souris dessus pour voir le nom de la station.

Cliquer dessus pour voir les observations et prévisions météorologiques.

Pour changer de carte: cliquez sur les boutons verts avec une croix noire pour zoomer, sur le bouton vert avec un tiret pour effectuer un zoom arrière, ou sur les flèches vertes pour les cartes adjacentes.


METAR-TAF: